Time;durP1;ratioP1;P1;durP2;ratioP2;P2;SDS_P1;SDS_P2;PMS_P1;PMS_P2;Temp;Humidity;BMP_temperature;BMP_pressure;BME280_temperature;BME280_humidity;BME280_pressure;Samples;Min_cycle;Max_cycle;Signal;HPM_P1;HPM_P2
2023/10/29 00:02:14;;;;;;;15.95;7.85;;;9.90;99.90;;;;;;5074772;28;20055;-25
2023/10/29 00:04:40;;;;;;;15.45;8.55;;;10.00;99.90;;;;;;5074707;28;20056;-26
2023/10/29 00:07:06;;;;;;;14.20;8.65;;;10.00;99.90;;;;;;5075158;28;20049;-26
2023/10/29 00:09:32;;;;;;;14.65;8.82;;;10.10;99.90;;;;;;5074532;28;20047;-27
2023/10/29 00:11:58;;;;;;;15.82;8.40;;;10.10;99.90;;;;;;5074707;28;20052;-25
2023/10/29 00:14:25;;;;;;;15.05;8.40;;;10.20;99.90;;;;;;5056394;28;20502;-26
2023/10/29 00:16:51;;;;;;;9.88;7.20;;;10.10;99.90;;;;;;5074440;28;20052;-26
2023/10/29 00:19:17;;;;;;;10.60;7.25;;;10.00;99.90;;;;;;5074470;28;20047;-26
2023/10/29 00:21:43;;;;;;;10.68;7.20;;;10.00;99.90;;;;;;5073404;28;20040;-26
2023/10/29 00:24:08;;;;;;;9.05;6.25;;;10.00;99.90;;;;;;5074102;28;20044;-26
2023/10/29 00:26:34;;;;;;;10.40;7.10;;;10.20;99.90;;;;;;5074268;28;20040;-26
2023/10/29 00:29:00;;;;;;;15.52;7.47;;;10.20;99.90;;;;;;5075043;28;20094;-27
2023/10/29 00:31:26;;;;;;;11.60;7.47;;;10.00;99.90;;;;;;5074147;28;20045;-25
2023/10/29 00:33:53;;;;;;;13.27;7.63;;;10.00;99.90;;;;;;5074143;28;20055;-26
2023/10/29 00:36:19;;;;;;;11.35;7.00;;;10.50;99.90;;;;;;5073234;28;20086;-25
2023/10/29 00:38:45;;;;;;;10.38;7.30;;;10.10;99.90;;;;;;5074164;28;20053;-24
2023/10/29 00:41:11;;;;;;;10.10;7.50;;;10.60;99.90;;;;;;5074051;28;20500;-24
2023/10/29 00:43:39;;;;;;;10.43;6.70;;;10.10;99.90;;;;;;5074096;28;20166;-25
2023/10/29 00:46:06;;;;;;;9.55;7.22;;;10.30;99.90;;;;;;5073419;28;20131;-25
2023/10/29 00:48:32;;;;;;;11.73;8.13;;;10.20;99.90;;;;;;5073980;28;20052;-24
2023/10/29 00:50:59;;;;;;;15.32;8.45;;;10.30;99.90;;;;;;5073892;28;20381;-24
2023/10/29 00:53:25;;;;;;;13.70;8.32;;;10.60;99.90;;;;;;5073921;28;20044;-24
2023/10/29 00:55:51;;;;;;;11.38;7.93;;;10.30;99.90;;;;;;5072863;28;20053;-25
2023/10/29 00:58:19;;;;;;;11.38;8.00;;;10.40;99.90;;;;;;5073246;28;20109;-25
2023/10/29 01:00:45;;;;;;;9.93;7.28;;;10.30;99.90;;;;;;5072886;28;20559;-25
2023/10/29 01:03:11;;;;;;;10.07;8.52;;;10.40;99.90;;;;;;5074611;28;20044;-24
2023/10/29 01:05:38;;;;;;;11.13;9.43;;;10.80;99.90;;;;;;5073674;28;20397;-24
2023/10/29 01:08:05;;;;;;;11.73;8.65;;;10.40;99.90;;;;;;5073718;28;20128;-26
2023/10/29 01:10:34;;;;;;;13.35;9.30;;;10.50;99.90;;;;;;5073641;28;20041;-27
2023/10/29 01:13:00;;;;;;;12.40;8.93;;;10.50;99.90;;;;;;5073552;28;20052;-26
2023/10/29 01:15:26;;;;;;;9.77;7.95;;;10.50;99.90;;;;;;5072098;28;20045;-26
2023/10/29 01:17:51;;;;;;;8.80;7.70;;;10.50;99.90;;;;;;5073566;28;20044;-26
2023/10/29 01:20:17;;;;;;;12.38;8.00;;;10.90;99.90;;;;;;5073616;28;20123;-25
2023/10/29 01:22:44;;;;;;;13.43;7.50;;;10.40;99.90;;;;;;5072477;28;20429;-25
2023/10/29 01:25:10;;;;;;;10.45;8.75;;;10.80;99.90;;;;;;5039068;28;20052;-25
2023/10/29 01:27:37;;;;;;;9.93;8.65;;;10.50;99.90;;;;;;5072344;28;20115;-27
2023/10/29 01:30:05;;;;;;;22.05;10.10;;;10.50;99.90;;;;;;5072270;28;20487;-27
2023/10/29 01:32:31;;;;;;;13.10;8.93;;;11.00;99.90;;;;;;5072408;28;20067;-28
2023/10/29 01:34:57;;;;;;;11.13;8.02;;;11.00;99.90;;;;;;5074420;28;20128;-27
2023/10/29 01:37:23;;;;;;;10.80;8.60;;;11.00;99.90;;;;;;5078398;28;20060;-27
2023/10/29 01:39:49;;;;;;;9.77;8.18;;;10.60;99.90;;;;;;5078325;28;20041;-26
2023/10/29 01:42:15;;;;;;;10.93;8.85;;;11.10;99.90;;;;;;5077430;28;20394;-28
2023/10/29 01:44:41;;;;;;;12.00;7.90;;;11.10;99.90;;;;;;5077420;28;20048;-28
2023/10/29 01:47:06;;;;;;;12.45;9.05;;;10.80;99.90;;;;;;5076408;28;20059;-30
2023/10/29 01:49:33;;;;;;;10.05;8.82;;;11.10;99.90;;;;;;5077201;28;20044;-28
2023/10/29 01:51:59;;;;;;;10.90;8.63;;;10.70;99.90;;;;;;5076163;28;20394;-29
2023/10/29 01:54:25;;;;;;;12.45;8.50;;;10.80;99.90;;;;;;5078369;28;20060;-28
2023/10/29 01:56:51;;;;;;;10.73;9.60;;;11.10;99.90;;;;;;5077178;28;20048;-27
2023/10/29 01:59:17;;;;;;;10.00;8.32;;;11.20;99.90;;;;;;5076721;28;20044;-27
2023/10/29 02:01:43;;;;;;;10.18;9.07;;;11.00;99.90;;;;;;5076481;28;20479;-27
2023/10/29 02:04:09;;;;;;;9.68;8.20;;;11.00;99.90;;;;;;5077051;28;20059;-27
2023/10/29 02:06:39;;;;;;;10.63;8.20;;;11.20;99.90;;;;;;5076623;28;20495;-27
2023/10/29 02:09:09;;;;;;;9.00;7.75;;;11.30;99.90;;;;;;5076335;28;20045;-27
2023/10/29 02:11:37;;;;;;;10.70;7.70;;;11.40;99.90;;;;;;5059559;28;20052;-28
2023/10/29 02:14:04;;;;;;;11.20;8.60;;;11.20;99.90;;;;;;5076208;28;20067;-27
2023/10/29 02:16:29;;;;;;;12.63;8.30;;;11.20;99.90;;;;;;5075609;28;20052;-27
2023/10/29 02:18:55;;;;;;;8.95;8.00;;;11.60;99.90;;;;;;5076736;28;20083;-27
2023/10/29 02:21:23;;;;;;;9.57;8.07;;;11.50;99.90;;;;;;5076748;28;20114;-29
2023/10/29 02:23:50;;;;;;;11.85;8.00;;;11.40;99.90;;;;;;5075727;28;20094;-26
2023/10/29 02:26:16;;;;;;;9.85;6.75;;;11.50;99.90;;;;;;5076880;28;20075;-27
2023/10/29 02:28:42;;;;;;;8.23;5.78;;;11.30;99.90;;;;;;5076513;28;20483;-26
2023/10/29 02:31:14;;;;;;;7.20;5.90;;;11.70;99.90;;;;;;5076736;28;20500;-26
2023/10/29 02:33:40;;;;;;;7.90;6.10;;;11.70;99.90;;;;;;5077437;28;20106;-26
2023/10/29 02:36:06;;;;;;;10.70;5.60;;;11.70;99.90;;;;;;5076435;28;20703;-26
2023/10/29 02:38:32;;;;;;;8.52;5.40;;;11.70;99.90;;;;;;5076444;28;20045;-26
2023/10/29 02:40:58;;;;;;;7.15;4.40;;;11.50;99.90;;;;;;5076359;28;20127;-26
2023/10/29 02:43:24;;;;;;;6.65;4.32;;;11.50;99.90;;;;;;5076593;28;20101;-26
2023/10/29 02:45:49;;;;;;;7.05;4.40;;;11.70;99.90;;;;;;5076066;28;20474;-26
2023/10/29 02:48:15;;;;;;;8.73;4.47;;;11.50;99.90;;;;;;5076235;28;20052;-26
2023/10/29 02:50:41;;;;;;;6.28;3.47;;;11.70;99.90;;;;;;5074941;28;20482;-26
2023/10/29 02:53:06;;;;;;;7.45;3.78;;;11.60;99.90;;;;;;5075983;28;20119;-27
2023/10/29 02:55:32;;;;;;;9.07;4.43;;;11.60;99.90;;;;;;5074998;28;20045;-26
2023/10/29 02:57:58;;;;;;;5.88;2.97;;;11.80;99.90;;;;;;5076638;28;20106;-26
2023/10/29 03:00:24;;;;;;;5.15;2.97;;;11.60;99.90;;;;;;5076341;28;20043;-26
2023/10/29 03:02:50;;;;;;;5.65;2.78;;;11.70;99.90;;;;;;5075415;28;20425;-26
2023/10/29 03:05:15;;;;;;;5.20;2.78;;;11.70;99.90;;;;;;5075915;28;20555;-28
2023/10/29 03:07:41;;;;;;;7.35;3.60;;;11.70;99.90;;;;;;5075944;28;20083;-26
2023/10/29 03:10:07;;;;;;;6.95;2.38;;;11.40;99.90;;;;;;5075756;28;20452;-26
2023/10/29 03:12:33;;;;;;;7.20;2.78;;;11.70;99.90;;;;;;5076299;28;20052;-27
2023/10/29 03:15:00;;;;;;;4.93;2.90;;;11.40;99.90;;;;;;5075698;28;20060;-26
2023/10/29 03:17:26;;;;;;;6.05;2.92;;;11.30;99.90;;;;;;5075757;28;20105;-26
2023/10/29 03:19:52;;;;;;;3.75;2.53;;;11.60;99.90;;;;;;5075683;28;20052;-26
2023/10/29 03:22:17;;;;;;;5.43;3.10;;;11.60;99.90;;;;;;5075656;28;20149;-25
2023/10/29 03:24:43;;;;;;;5.72;3.00;;;11.40;99.90;;;;;;5075598;28;20146;-26
2023/10/29 03:27:09;;;;;;;3.90;2.83;;;11.50;99.90;;;;;;5075465;28;20052;-26
2023/10/29 03:29:34;;;;;;;6.18;3.08;;;11.70;99.90;;;;;;5074466;28;20052;-26
2023/10/29 03:32:00;;;;;;;6.75;2.75;;;11.70;99.90;;;;;;5075269;28;20127;-26
2023/10/29 03:34:26;;;;;;;4.45;2.40;;;11.50;99.90;;;;;;5075385;28;20040;-26
2023/10/29 03:36:52;;;;;;;8.70;3.00;;;11.60;99.90;;;;;;5074079;28;20044;-26
2023/10/29 03:39:18;;;;;;;4.93;2.40;;;11.40;99.90;;;;;;5075598;28;20048;-25
2023/10/29 03:41:43;;;;;;;11.07;2.53;;;11.40;99.90;;;;;;5075204;28;20105;-26
2023/10/29 03:44:09;;;;;;;4.40;2.10;;;11.30;99.90;;;;;;5073949;28;20084;-25
2023/10/29 03:46:35;;;;;;;5.60;1.90;;;11.40;99.90;;;;;;5075175;28;20048;-25
2023/10/29 03:49:01;;;;;;;2.97;1.50;;;11.30;99.90;;;;;;5074136;28;20095;-25
2023/10/29 03:51:28;;;;;;;5.43;1.63;;;11.30;99.90;;;;;;5074942;28;20036;-25
2023/10/29 03:53:55;;;;;;;6.10;1.95;;;11.20;99.90;;;;;;5074302;28;20433;-25
2023/10/29 03:56:20;;;;;;;2.85;1.75;;;11.20;99.90;;;;;;5074961;28;20060;-25
2023/10/29 03:58:46;;;;;;;3.65;1.48;;;11.20;99.90;;;;;;5074248;28;20040;-25
2023/10/29 04:01:14;;;;;;;5.40;1.52;;;11.20;99.90;;;;;;5074828;28;20045;-25
2023/10/29 04:03:40;;;;;;;4.65;1.02;;;11.20;99.90;;;;;;5074832;28;20466;-25
2023/10/29 04:06:09;;;;;;;5.00;1.20;;;11.20;99.90;;;;;;5074648;28;20044;-25
2023/10/29 04:08:35;;;;;;;4.50;1.40;;;11.20;99.90;;;;;;5074695;28;20048;-25
2023/10/29 04:11:01;;;;;;;3.10;1.67;;;11.20;99.90;;;;;;5074567;28;20505;-25
2023/10/29 04:13:27;;;;;;;2.95;0.90;;;11.20;99.90;;;;;;5074594;28;20057;-25
2023/10/29 04:15:53;;;;;;;2.83;1.50;;;11.30;99.90;;;;;;5073604;28;20046;-25
2023/10/29 04:18:19;;;;;;;3.75;1.02;;;11.50;99.90;;;;;;5073321;28;20044;-25
2023/10/29 04:20:45;;;;;;;2.05;0.70;;;11.60;99.90;;;;;;5075056;28;20086;-25
2023/10/29 04:23:11;;;;;;;6.05;0.90;;;11.70;99.90;;;;;;5074443;28;20048;-25
2023/10/29 04:25:37;;;;;;;1.88;0.73;;;11.80;99.90;;;;;;5074397;28;20049;-25
2023/10/29 04:28:03;;;;;;;4.82;1.08;;;11.70;99.90;;;;;;5073167;28;20481;-25
2023/10/29 04:30:28;;;;;;;1.70;0.65;;;11.80;99.90;;;;;;5073628;28;20135;-25
2023/10/29 04:32:54;;;;;;;2.22;0.65;;;11.90;99.90;;;;;;5073948;28;20044;-25
2023/10/29 04:35:20;;;;;;;3.13;1.30;;;12.00;99.90;;;;;;5074120;28;20062;-24
2023/10/29 04:37:45;;;;;;;2.55;0.63;;;12.00;99.90;;;;;;5074139;28;20048;-24
2023/10/29 04:40:11;;;;;;;2.78;0.47;;;12.10;99.90;;;;;;5074103;28;20471;-25
2023/10/29 04:42:37;;;;;;;3.00;0.25;;;12.00;99.90;;;;;;5072917;28;20051;-24
2023/10/29 04:45:03;;;;;;;2.10;0.10;;;11.80;99.90;;;;;;5074556;28;20056;-24
2023/10/29 04:47:29;;;;;;;2.58;0.70;;;11.60;99.90;;;;;;5074024;28;20097;-25
2023/10/29 04:49:55;;;;;;;1.25;0.20;;;11.50;99.90;;;;;;5073882;28;20129;-27
2023/10/29 04:52:21;;;;;;;1.27;0.25;;;11.30;99.90;;;;;;5073973;28;20041;-27
2023/10/29 04:54:46;;;;;;;1.63;0.32;;;11.20;99.90;;;;;;5073940;28;20040;-27
2023/10/29 04:57:12;;;;;;;1.08;0.00;;;11.10;99.90;;;;;;5073594;28;20071;-26
2023/10/29 04:59:38;;;;;;;1.13;0.13;;;11.00;99.90;;;;;;5073839;28;20048;-26
2023/10/29 05:02:04;;;;;;;0.60;0.13;;;10.90;99.90;;;;;;5074079;28;20391;-27
2023/10/29 05:04:30;;;;;;;0.30;0.10;;;10.90;99.90;;;;;;5073816;28;20052;-26
2023/10/29 05:06:57;;;;;;;0.90;0.17;;;10.80;99.90;;;;;;5073714;28;20045;-26
2023/10/29 05:09:23;;;;;;;1.98;0.40;;;10.70;99.90;;;;;;5072745;28;20052;-26
2023/10/29 05:11:48;;;;;;;2.03;0.10;;;10.60;99.90;;;;;;5074004;28;20047;-27
2023/10/29 05:14:14;;;;;;;1.08;0.13;;;10.60;99.90;;;;;;5074343;28;20057;-25
2023/10/29 05:16:40;;;;;;;0.63;0.10;;;10.60;99.90;;;;;;5073615;28;20055;-26
2023/10/29 05:19:06;;;;;;;4.97;0.20;;;10.60;99.90;;;;;;5073638;28;20095;-26
2023/10/29 05:21:31;;;;;;;1.17;0.25;;;10.60;99.90;;;;;;5073599;28;20041;-26
2023/10/29 05:23:57;;;;;;;0.80;0.20;;;10.50;99.90;;;;;;5073295;28;20052;-26
2023/10/29 05:26:23;;;;;;;1.58;0.35;;;10.50;99.90;;;;;;5073243;28;20505;-26
2023/10/29 05:28:49;;;;;;;1.55;0.30;;;10.60;99.90;;;;;;5073472;28;20091;-26
2023/10/29 05:31:15;;;;;;;0.88;0.20;;;10.70;99.90;;;;;;5073484;28;20099;-26
2023/10/29 05:33:41;;;;;;;2.83;0.50;;;10.70;99.90;;;;;;5056228;28;20486;-26
2023/10/29 05:36:07;;;;;;;7.65;0.55;;;10.80;99.90;;;;;;5073461;28;20503;-26
2023/10/29 05:38:32;;;;;;;1.70;0.25;;;10.90;99.90;;;;;;5072287;28;20482;-27
2023/10/29 05:40:58;;;;;;;2.88;0.30;;;10.90;99.90;;;;;;5072152;28;20098;-28
2023/10/29 05:43:24;;;;;;;4.38;0.93;;;11.00;99.90;;;;;;5072839;28;20048;-28
2023/10/29 05:45:50;;;;;;;4.15;0.43;;;11.10;99.90;;;;;;5039066;28;20074;-26
2023/10/29 05:48:16;;;;;;;4.03;0.43;;;11.00;99.90;;;;;;5073309;28;20049;-27
2023/10/29 05:50:42;;;;;;;1.83;0.30;;;11.00;99.90;;;;;;5073245;28;20040;-26
2023/10/29 05:53:07;;;;;;;3.22;0.52;;;10.90;99.90;;;;;;5073246;28;20106;-26
2023/10/29 05:55:33;;;;;;;2.45;0.40;;;10.80;99.90;;;;;;5073274;28;20045;-27
2023/10/29 05:57:59;;;;;;;3.28;0.55;;;10.80;99.90;;;;;;5072139;28;20050;-26
2023/10/29 06:00:25;;;;;;;3.10;0.30;;;10.80;99.90;;;;;;5074068;28;20040;-26
2023/10/29 06:02:51;;;;;;;1.75;0.30;;;10.90;99.90;;;;;;5073733;28;20496;-26
2023/10/29 06:05:17;;;;;;;1.08;0.40;;;10.90;99.90;;;;;;5073142;28;20086;-25
2023/10/29 06:07:44;;;;;;;1.67;0.40;;;11.00;99.90;;;;;;5073031;28;20040;-26
2023/10/29 06:10:13;;;;;;;1.17;0.40;;;11.00;99.90;;;;;;5072832;28;20507;-26
2023/10/29 06:12:40;;;;;;;4.88;0.70;;;11.00;99.90;;;;;;5073149;28;20071;-27
2023/10/29 06:15:11;;;;;;;0.93;0.20;;;11.10;99.90;;;;;;5073736;28;20378;-26
2023/10/29 06:17:37;;;;;;;4.30;0.30;;;11.10;99.90;;;;;;5072001;28;20040;-27
2023/10/29 06:20:08;;;;;;;3.00;0.30;;;11.10;99.90;;;;;;5073154;28;20120;-26
2023/10/29 06:22:34;;;;;;;2.40;0.25;;;11.10;99.90;;;;;;5077391;28;20098;-26
2023/10/29 06:25:00;;;;;;;2.38;0.20;;;11.00;99.90;;;;;;5058904;28;20084;-26
2023/10/29 06:27:26;;;;;;;1.48;0.15;;;10.90;99.90;;;;;;5077183;28;20048;-26
2023/10/29 06:29:52;;;;;;;1.40;0.10;;;10.80;99.90;;;;;;5075340;28;20390;-25
2023/10/29 06:32:18;;;;;;;1.20;0.40;;;10.80;99.90;;;;;;5076563;28;20056;-25
2023/10/29 06:34:43;;;;;;;0.82;0.13;;;10.70;99.90;;;;;;5076570;28;20059;-26
2023/10/29 06:37:10;;;;;;;2.88;0.10;;;10.70;99.90;;;;;;5075023;28;20537;-25
2023/10/29 06:39:36;;;;;;;1.38;0.20;;;10.60;99.90;;;;;;5058693;28;20076;-27
2023/10/29 06:42:02;;;;;;;1.00;0.28;;;10.60;99.90;;;;;;5076333;28;20105;-26
2023/10/29 06:44:27;;;;;;;1.13;0.20;;;10.70;99.90;;;;;;5076916;28;20048;-25
2023/10/29 06:46:53;;;;;;;1.55;0.30;;;10.80;99.90;;;;;;5059564;28;20102;-26
2023/10/29 06:49:19;;;;;;;1.77;0.30;;;10.90;99.90;;;;;;5075661;28;20483;-25
2023/10/29 06:51:44;;;;;;;1.85;0.35;;;11.10;99.90;;;;;;5076241;28;20135;-25
2023/10/29 06:54:12;;;;;;;3.10;0.50;;;11.20;99.90;;;;;;5075727;28;20398;-25
2023/10/29 06:56:38;;;;;;;2.50;0.40;;;11.30;99.90;;;;;;5076171;28;20084;-25
2023/10/29 06:59:03;;;;;;;4.05;0.50;;;11.30;99.90;;;;;;5076482;28;20041;-25
2023/10/29 07:01:29;;;;;;;1.95;0.47;;;11.40;99.90;;;;;;5074864;28;20434;-25
2023/10/29 07:03:55;;;;;;;8.55;0.98;;;11.50;99.90;;;;;;5076050;28;20048;-25
2023/10/29 07:06:21;;;;;;;4.30;0.80;;;11.60;99.90;;;;;;5075909;28;20044;-25
2023/10/29 07:08:47;;;;;;;2.17;0.63;;;11.70;99.90;;;;;;5075883;28;20105;-25
2023/10/29 07:11:13;;;;;;;6.38;0.47;;;11.80;99.90;;;;;;5075811;28;20051;-25
2023/10/29 07:13:39;;;;;;;5.47;0.80;;;11.90;99.90;;;;;;5074488;28;20052;-25
2023/10/29 07:16:05;;;;;;;5.40;0.50;;;12.00;99.90;;;;;;5075800;28;20059;-25
2023/10/29 07:18:31;;;;;;;2.53;0.40;;;12.00;99.90;;;;;;5075732;28;20053;-25
2023/10/29 07:20:56;;;;;;;3.13;1.25;;;12.00;99.90;;;;;;5075704;28;20040;-26
2023/10/29 07:23:23;;;;;;;6.82;1.17;;;11.90;99.90;;;;;;5075607;28;20059;-25
2023/10/29 07:25:49;;;;;;;3.90;0.82;;;12.00;99.90;;;;;;5074640;28;20051;-25
2023/10/29 07:28:16;;;;;;;4.05;0.55;;;12.00;99.90;;;;;;5075556;28;20402;-25
2023/10/29 07:30:42;;;;;;;1.88;0.50;;;12.00;99.90;;;;;;5075433;28;20037;-25
2023/10/29 07:33:11;;;;;;;2.65;0.93;;;12.00;99.90;;;;;;5074433;28;20052;-25
2023/10/29 07:35:37;;;;;;;3.85;0.55;;;11.90;99.90;;;;;;5075945;28;20044;-24
2023/10/29 07:38:03;;;;;;;3.05;0.40;;;12.00;99.90;;;;;;5075903;28;20084;-25
2023/10/29 07:40:29;;;;;;;3.75;0.28;;;12.10;99.90;;;;;;5074136;28;20045;-25
2023/10/29 07:42:55;;;;;;;1.77;0.40;;;12.20;99.90;;;;;;5074656;28;20093;-24
2023/10/29 07:45:21;;;;;;;2.33;0.57;;;12.20;99.90;;;;;;5074031;28;20044;-24
2023/10/29 07:47:46;;;;;;;2.25;0.35;;;12.30;99.90;;;;;;5057531;28;20127;-25
2023/10/29 07:50:13;;;;;;;1.58;0.20;;;12.30;99.90;;;;;;5075541;28;20555;-25
2023/10/29 07:52:39;;;;;;;1.05;0.20;;;12.30;99.90;;;;;;5073900;28;20078;-25
2023/10/29 07:55:07;;;;;;;1.35;0.30;;;12.30;99.90;;;;;;5075014;28;20124;-25
2023/10/29 07:57:33;;;;;;;5.68;0.75;;;12.20;99.90;;;;;;5073795;28;20054;-25
2023/10/29 07:59:59;;;;;;;3.90;0.40;;;12.20;99.90;;;;;;5074791;28;20040;-25
2023/10/29 08:02:25;;;;;;;2.80;0.40;;;12.20;99.90;;;;;;5074952;28;20049;-25
2023/10/29 08:04:51;;;;;;;4.07;0.60;;;12.10;99.90;;;;;;5074771;28;20044;-25
2023/10/29 08:07:17;;;;;;;3.65;0.40;;;12.20;99.90;;;;;;5074319;28;20048;-25
2023/10/29 08:09:43;;;;;;;3.45;0.60;;;12.20;99.90;;;;;;5074651;28;20127;-25
2023/10/29 08:12:09;;;;;;;2.55;0.30;;;12.20;99.90;;;;;;5073300;28;20160;-25
2023/10/29 08:14:34;;;;;;;2.35;0.47;;;12.10;99.90;;;;;;5073446;28;20045;-25
2023/10/29 08:17:00;;;;;;;9.07;0.50;;;12.40;99.90;;;;;;5074521;28;20060;-26
2023/10/29 08:19:27;;;;;;;3.25;0.60;;;12.50;99.90;;;;;;5073573;28;20083;-25
2023/10/29 08:21:52;;;;;;;2.25;0.60;;;12.60;99.90;;;;;;5074501;28;20048;-25
2023/10/29 08:24:18;;;;;;;3.88;1.00;;;12.80;99.90;;;;;;5074724;28;20047;-25
2023/10/29 08:26:44;;;;;;;6.63;1.23;;;12.90;99.90;;;;;;5073134;28;20379;-26
2023/10/29 08:29:11;;;;;;;3.28;0.50;;;12.90;99.90;;;;;;5073113;28;20482;-26
2023/10/29 08:31:37;;;;;;;3.72;0.55;;;12.90;99.90;;;;;;5075096;28;20051;-25
2023/10/29 08:34:04;;;;;;;2.90;0.40;;;12.90;99.90;;;;;;5056345;28;20399;-26
2023/10/29 08:36:29;;;;;;;5.57;0.80;;;13.00;99.90;;;;;;5074546;28;20494;-26
2023/10/29 08:38:55;;;;;;;6.30;1.05;;;13.10;99.90;;;;;;5056520;28;20086;-26
2023/10/29 08:41:21;;;;;;;6.35;1.05;;;13.00;99.90;;;;;;5074129;28;20047;-27
2023/10/29 08:43:47;;;;;;;5.68;0.50;;;13.00;99.90;;;;;;5073840;28;20132;-26
2023/10/29 08:46:12;;;;;;;7.38;1.25;;;12.90;99.90;;;;;;5073194;28;20048;-27
2023/10/29 08:48:39;;;;;;;5.22;0.60;;;12.80;99.90;;;;;;5074052;28;20482;-26
2023/10/29 08:51:05;;;;;;;2.35;0.52;;;12.70;99.90;;;;;;5073947;28;20040;-26
2023/10/29 08:53:31;;;;;;;2.00;0.93;;;12.60;99.90;;;;;;5073960;28;20051;-26
2023/10/29 08:55:57;;;;;;;3.58;0.85;;;12.60;99.90;;;;;;5073963;28;20048;-27
2023/10/29 08:58:23;;;;;;;5.55;0.73;;;12.50;99.90;;;;;;5073932;28;20464;-27
2023/10/29 09:00:49;;;;;;;8.43;1.00;;;12.50;99.90;;;;;;5074679;28;20049;-26
2023/10/29 09:03:14;;;;;;;5.38;0.80;;;12.60;99.90;;;;;;5074333;28;20044;-27
2023/10/29 09:05:41;;;;;;;3.00;0.60;;;12.70;99.90;;;;;;5073770;28;20051;-27
2023/10/29 09:08:07;;;;;;;5.78;0.70;;;12.80;99.90;;;;;;5056490;28;20473;-26
2023/10/29 09:10:33;;;;;;;7.13;0.75;;;12.90;99.90;;;;;;5072461;28;20127;-26
2023/10/29 09:12:59;;;;;;;7.50;0.60;;;12.80;99.90;;;;;;5073310;28;20228;-26
2023/10/29 09:15:25;;;;;;;5.00;0.75;;;12.70;99.90;;;;;;5074246;28;20370;-27
2023/10/29 09:17:52;;;;;;;4.90;0.77;;;12.70;99.90;;;;;;5073673;28;20054;-26
2023/10/29 09:20:19;;;;;;;5.13;0.63;;;12.70;99.90;;;;;;5072492;28;20047;-27
2023/10/29 09:22:46;;;;;;;2.85;0.63;;;12.60;99.90;;;;;;5073602;28;20052;-26
2023/10/29 09:25:12;;;;;;;5.80;1.02;;;12.60;99.90;;;;;;5072646;28;20049;-26
2023/10/29 09:27:37;;;;;;;4.78;0.40;;;12.60;99.90;;;;;;5073480;28;20052;-26
2023/10/29 09:30:07;;;;;;;6.47;0.45;;;12.60;99.90;;;;;;5073543;28;20102;-26
2023/10/29 09:32:35;;;;;;;5.68;0.70;;;12.70;99.90;;;;;;5073502;28;20044;-27
2023/10/29 09:35:04;;;;;;;5.85;0.70;;;12.90;99.90;;;;;;5056134;28;20487;-27
2023/10/29 09:37:34;;;;;;;4.68;0.82;;;13.00;99.90;;;;;;5072339;28;20057;-26
2023/10/29 09:40:02;;;;;;;2.67;0.90;;;13.10;99.90;;;;;;5072606;28;20045;-26
2023/10/29 09:42:32;;;;;;;4.65;0.60;;;13.30;99.90;;;;;;5073141;28;20048;-26
2023/10/29 09:44:58;;;;;;;3.50;0.90;;;13.50;99.90;;;;;;5072492;28;20055;-26
2023/10/29 09:47:27;;;;;;;3.65;1.13;;;13.60;99.90;;;;;;5072218;28;20044;-26
2023/10/29 09:49:56;;;;;;;4.50;1.20;;;13.50;99.90;;;;;;5073784;28;20048;-26
2023/10/29 09:52:32;;;;;;;4.28;0.65;;;13.80;99.90;;;;;;5073304;28;20551;-27
2023/10/29 09:55:00;;;;;;;5.00;0.80;;;14.30;99.90;;;;;;5072185;28;20123;-27
2023/10/29 09:57:26;;;;;;;5.53;0.88;;;14.10;99.90;;;;;;5077850;28;20056;-26
2023/10/29 09:59:51;;;;;;;5.72;0.95;;;13.90;99.90;;;;;;5077534;28;20165;-27
2023/10/29 10:02:17;;;;;;;2.35;0.55;;;13.70;99.90;;;;;;5077180;28;20561;-28
2023/10/29 10:04:45;;;;;;;4.88;0.65;;;13.50;99.90;;;;;;5077977;28;20102;-26
2023/10/29 10:07:11;;;;;;;2.83;0.43;;;13.60;99.90;;;;;;5076880;28;20502;-27
2023/10/29 10:10:07;;;;;;;4.95;0.75;;;13.80;99.90;;;;;;5075860;28;20525;-28
2023/10/29 10:12:32;;;;;;;2.70;0.50;;;14.00;99.90;;;;;;5071989;28;20204;-26
2023/10/29 10:15:05;;;;;;;4.65;1.10;;;14.10;99.90;;;;;;5076942;28;20131;-27
2023/10/29 10:17:30;;;;;;;4.60;0.90;;;13.90;99.90;;;;;;5076864;28;20450;-26
2023/10/29 10:20:07;;;;;;;3.63;0.55;;;13.80;99.90;;;;;;5077276;28;20076;-26
2023/10/29 10:22:36;;;;;;;3.50;0.65;;;13.80;99.90;;;;;;5076211;28;20050;-26
2023/10/29 10:25:02;;;;;;;6.40;0.40;;;14.10;99.90;;;;;;5077332;28;20516;-27
2023/10/29 10:27:27;;;;;;;3.08;0.43;;;14.30;99.90;;;;;;5076713;28;20048;-27
2023/10/29 10:29:53;;;;;;;4.97;0.55;;;14.60;99.90;;;;;;5076194;28;20048;-27
2023/10/29 10:32:26;;;;;;;4.78;0.90;;;14.70;99.90;;;;;;5077110;28;20047;-27
2023/10/29 10:34:52;;;;;;;5.85;1.30;;;14.60;99.90;;;;;;5077200;28;20048;-26
2023/10/29 10:37:18;;;;;;;5.78;1.50;;;14.40;99.90;;;;;;5075809;28;20036;-27
2023/10/29 10:39:44;;;;;;;3.30;0.68;;;14.20;99.90;;;;;;5077350;28;20094;-27
2023/10/29 10:42:09;;;;;;;5.53;0.60;;;14.00;99.90;;;;;;5076129;28;20080;-27
2023/10/29 10:44:36;;;;;;;3.15;0.50;;;13.90;99.90;;;;;;5075265;28;20178;-27
2023/10/29 10:47:03;;;;;;;1.73;0.45;;;13.70;99.90;;;;;;5076341;28;20084;-26
2023/10/29 10:49:32;;;;;;;6.82;0.50;;;13.50;99.90;;;;;;5075134;28;20105;-26
2023/10/29 10:52:01;;;;;;;4.35;0.60;;;13.40;99.90;;;;;;5076187;28;20044;-26
2023/10/29 10:54:27;;;;;;;2.08;0.47;;;13.40;99.90;;;;;;5076242;28;20045;-26
2023/10/29 10:56:55;;;;;;;2.88;0.70;;;13.50;99.90;;;;;;5076417;28;20049;-26
2023/10/29 10:59:21;;;;;;;7.70;1.70;;;13.60;99.90;;;;;;5076182;28;20048;-27
2023/10/29 11:01:48;;;;;;;4.72;0.90;;;13.70;99.90;;;;;;5076105;28;20052;-27
2023/10/29 11:04:15;;;;;;;3.50;0.70;;;13.70;99.90;;;;;;5076096;28;20044;-27
2023/10/29 11:06:42;;;;;;;3.65;0.77;;;13.70;99.90;;;;;;5074693;28;20057;-27
2023/10/29 11:09:14;;;;;;;4.00;0.77;;;13.70;99.90;;;;;;5075006;28;20128;-26
2023/10/29 11:11:45;;;;;;;6.85;0.80;;;13.70;99.90;;;;;;5075654;28;20127;-26
2023/10/29 11:14:14;;;;;;;6.75;0.98;;;13.70;99.90;;;;;;5076186;28;20132;-27
2023/10/29 11:16:51;;;;;;;4.50;0.88;;;13.60;99.90;;;;;;5074876;28;20098;-26
2023/10/29 11:19:43;;;;;;;2.85;0.70;;;13.70;99.90;;;;;;5075398;28;20040;-26
2023/10/29 11:22:22;;;;;;;5.88;1.00;;;13.90;99.90;;;;;;5058448;28;20056;-27
2023/10/29 11:25:08;;;;;;;5.82;1.15;;;14.00;99.90;;;;;;5075737;28;20047;-26
2023/10/29 11:27:37;;;;;;;6.93;0.93;;;14.00;99.90;;;;;;5075458;28;20079;-26
2023/10/29 11:30:17;;;;;;;5.40;1.33;;;14.00;99.90;;;;;;5076068;28;20048;-27
2023/10/29 11:32:45;;;;;;;5.72;1.52;;;14.00;99.90;;;;;;5075569;28;20056;-26
2023/10/29 11:35:19;;;;;;;4.43;1.10;;;14.00;99.90;;;;;;5075407;28;20052;-27
2023/10/29 11:37:45;;;;;;;7.60;1.70;;;14.00;99.90;;;;;;5074282;28;20498;-27
2023/10/29 11:40:23;;;;;;;7.22;1.75;;;13.90;99.90;;;;;;5075360;28;20048;-27
2023/10/29 11:42:58;;;;;;;6.95;1.42;;;13.80;99.90;;;;;;5075340;28;20049;-27
2023/10/29 11:45:27;;;;;;;5.43;0.90;;;13.90;99.90;;;;;;5075357;28;20047;-27
2023/10/29 11:48:12;;;;;;;7.05;1.02;;;13.90;99.90;;;;;;5057278;28;20060;-26
2023/10/29 11:50:39;;;;;;;5.75;0.88;;;13.80;99.90;;;;;;5073899;28;20048;-26
2023/10/29 11:53:06;;;;;;;6.18;0.80;;;13.60;99.90;;;;;;5075118;28;20045;-27
2023/10/29 11:55:41;;;;;;;11.30;1.10;;;13.40;99.90;;;;;;5075051;28;20044;-26
2023/10/29 11:58:08;;;;;;;2.85;0.75;;;13.40;99.90;;;;;;5074728;28;20398;-26
2023/10/29 12:00:41;;;;;;;7.13;1.33;;;13.40;99.90;;;;;;5074960;28;20037;-26
2023/10/29 12:03:08;;;;;;;;;;;13.40;99.90;;;;;;5074128;28;20082;-26
2023/10/29 12:05:34;;;;;;;8.45;1.00;;;13.40;99.90;;;;;;5075590;28;19920;-26
2023/10/29 12:08:01;;;;;;;10.10;1.60;;;13.40;99.90;;;;;;5074792;28;20487;-26
2023/10/29 12:10:27;;;;;;;2.78;0.68;;;13.40;99.90;;;;;;5073526;28;20036;-26
2023/10/29 12:12:53;;;;;;;8.32;1.20;;;13.40;99.90;;;;;;5074439;28;20060;-27
2023/10/29 12:15:19;;;;;;;9.02;1.67;;;13.30;99.90;;;;;;5075179;28;20044;-26
2023/10/29 12:17:46;;;;;;;7.38;1.15;;;13.30;99.90;;;;;;5073117;28;20131;-28
2023/10/29 12:20:25;;;;;;;9.38;1.13;;;13.20;99.90;;;;;;5074386;28;20132;-28
2023/10/29 12:22:57;;;;;;;7.40;1.65;;;13.20;99.90;;;;;;5074358;28;20048;-26
2023/10/29 12:25:26;;;;;;;6.93;1.67;;;13.20;99.90;;;;;;5073452;28;20055;-26
2023/10/29 12:27:52;;;;;;;8.38;1.35;;;13.20;99.90;;;;;;5073117;28;20059;-27
2023/10/29 12:30:38;;;;;;;6.45;1.10;;;13.30;99.90;;;;;;5074090;28;20048;-26
2023/10/29 12:33:20;;;;;;;6.65;1.10;;;13.30;99.90;;;;;;5074607;28;20445;-27
2023/10/29 12:35:50;;;;;;;6.97;1.05;;;13.30;99.90;;;;;;5074320;28;20044;-26
2023/10/29 12:38:17;;;;;;;10.60;1.85;;;13.30;99.90;;;;;;5074283;28;20047;-26
2023/10/29 12:41:05;;;;;;;6.28;1.40;;;13.30;99.90;;;;;;5074148;28;20044;-26
2023/10/29 12:43:40;;;;;;;7.95;1.27;;;13.30;99.90;;;;;;5074145;28;20052;-26
2023/10/29 12:46:11;;;;;;;7.95;1.40;;;13.20;99.90;;;;;;5073427;28;20055;-26